• Join FlightAware (Why Join?)
  • Login
  • US Flag GB Flag 
11:32 EST


 

Airport Tracker/Info


-or-


 

Live Flight TrackerFlight Track Log ✈ SKW5631 ✈ 06-Oct-2013 ✈ KSFO - KBUR

Flight Track Log - Related Links

Times and Time Zones

All times are in EDT time to prevent confusion due to time zone crossing. See the SKW5631 flight status page for this flight to view local times or setup timezone preferences in your user account.

Time Position Orientation Groundspeed Altitude Reporting Facility
EDT Latitude Longitude Course Direction KTS MPH feet Rate Location/Type
22:18 37.6500 -122.3667 141° Southeast 167 192 1,400  Level Northern Cal TRACON
22:19 37.7167 -122.3833 349° North 240 276 3,300 1,868 Climbing Northern Cal TRACON
22:20 37.3400 -122.0275 135° Southeast  Level Estimated
22:20 37.7019 -122.4419 252° West 253 291 4,700  Level Oakland Center
22:21 37.2467 -121.9122 133° Southeast  Level Estimated
22:21 37.6325 -122.4717 199° South 263 303 7,800  Level Oakland Center
22:22 37.1533 -121.7971 122° Southeast  Level Estimated
22:22 37.5594 -122.4781 184° South 269 310 10,000  Level Oakland Center
22:23 37.0598 -121.6823 141° Southeast  Level Estimated
22:23 37.4892 -122.4261 150° Southeast 295 339 11,900  Level Oakland Center
22:24 37.4175 -122.3600 144° Southeast 318 366 13,500 1,770 Climbing Oakland Center
22:25 37.3350 -122.2678 138° Southeast 332 382 15,500 1,672 Climbing Oakland Center
22:26 37.2653 -122.1894 138° Southeast 336 387 16,900 1,230 Climbing Oakland Center
22:27 37.1914 -122.1094 139° Southeast 344 396 18,000 1,122 Climbing Oakland Center
22:28 37.1158 -122.0258 139° Southeast 357 411 19,200 1,220 Climbing Oakland Center
22:29 37.0383 -121.9386 138° Southeast 369 425 20,500 1,279 Climbing Oakland Center
22:30 36.9597 -121.8519 139° Southeast 376 433 21,800 1,230 Climbing Oakland Center
22:31 36.8792 -121.7661 140° Southeast 380 437 23,000 1,171 Climbing Oakland Center
22:32 36.7900 -121.6706 139° Southeast 380 437 24,200 1,073 Climbing Oakland Center
22:33 36.7097 -121.5822 139° Southeast 386 444 25,200 934 Climbing Oakland Center
22:34 36.6294 -121.4944 139° Southeast 387 445 26,100 836 Climbing Oakland Center
22:35 36.5469 -121.4069 140° Southeast 389 448 26,900 732 Climbing Oakland Center
22:36 36.4650 -121.3167 138° Southeast 394 453 27,600 634 Climbing Oakland Center
22:37 36.3806 -121.2275 140° Southeast 398 458 28,200 590 Climbing Oakland Center
22:38 36.2967 -121.1367 139° Southeast 401 461 28,800 393 Climbing Oakland Center
22:39 36.2100 -121.0442 139° Southeast 410 472 29,000 98 Climbing Oakland Center
22:40 36.1053 -120.9303 139° Southeast 419 482 29,000  Level Oakland Center
22:41 36.0178 -120.8361 139° Southeast 417 480 29,000  Level Oakland Center
22:42 35.9292 -120.7417 139° Southeast 420 483 29,000  Level Oakland Center
22:43 35.8422 -120.6486 139° Southeast 416 479 29,000  Level Oakland Center
22:44 35.7539 -120.5553 139° Southeast 418 481 29,000  Level Oakland Center
22:45 35.6658 -120.4625 139° Southeast 416 479 29,000  Level Oakland Center
22:46 35.5778 -120.3700 139° Southeast 414 476 29,000  Level Oakland Center
22:47 35.4889 -120.2756 139° Southeast 415 478 29,000  Level Oakland Center
22:48 35.4058 -120.1878 139° Southeast 419 482 29,000  Level Oakland Center
22:49 35.3103 -120.0883 140° Southeast 412 474 29,000  Level Oakland Center
22:50 35.2236 -119.9997 140° Southeast 408 470 29,000  Level Oakland Center
22:51 35.1375 -119.9106 140° Southeast 405 466 29,000 -98 Level Oakland Center
22:52 35.0553 -119.8139 136° Southeast 410 472 28,800 -1,279 Descending Oakland Center
22:53 34.9806 -119.7114 132° Southeast 408 470 26,400 -2,311 Descending Oakland Center
22:54 34.9078 -119.6142 132° Southeast 397 457 24,100 -2,361 Descending Oakland Center
22:55 34.8250 -119.5036 132° Southeast 375 432 21,600 -2,195 Descending Oakland Center
22:56 34.7603 -119.4156 132° Southeast 358 412 19,600 -1,902 Descending Oakland Center
22:58 34.6975 -119.3311 132° Southeast 344 396 17,700 -1,967 Descending Oakland Center
22:59 34.6369 -119.2494 132° Southeast 332 382 15,600 -1,813 Descending Oakland Center
23:00 34.5661 -119.1608 134° Southeast 311 358 13,500 -1,886 Descending Los Angeles Center
23:01 34.5011 -119.0714 131° Southeast 293 337 11,200 -1,258 Descending Los Angeles Center
23:02 34.4492 -119.0036 133° Southeast 276 318 10,900 -634 Descending Los Angeles Center
23:03 34.3992 -118.9356 132° Southeast 270 311 9,900 -1,366 Descending Los Angeles Center
23:04 34.3467 -118.8708 134° Southeast 268 308 8,100 -1,306 Descending Los Angeles Center
23:05 34.3092 -118.8028 124° Southeast 244 281 7,200 -976 Descending Los Angeles Center
23:06 34.2739 -118.7436 126° Southeast 218 251 6,100 -1,073 Descending Los Angeles Center
23:07 34.2381 -118.6806 124° Southeast 225 259 5,000 -1,016 Descending Los Angeles Center
23:08 34.2047 -118.6156 122° Southeast 227 261 4,000 -638 Descending Los Angeles Center
23:09 34.2000 -118.5667 97° East 178 205 4,000 -488 Level Southern California TRACON
23:09 34.2000 -118.5167 90° East 162 186 3,300 -850 Descending Southern California TRACON
23:11 34.2000 -118.4667 90° East 152 175 2,300 -800 Descending Southern California TRACON
23:11 34.2000 -118.4167 90° East 145 167 1,700 -667 Descending Southern California TRACON